Time;durP1;ratioP1;P1;durP2;ratioP2;P2;SDS_P1;SDS_P2;PMS_P1;PMS_P2;Temp;Humidity;BMP_temperature;BMP_pressure;BME280_temperature;BME280_humidity;BME280_pressure;Samples;Min_cycle;Max_cycle;Signal;HPM_P1;HPM_P2
2023/09/07 00:00:16;;;;;;;6.05;4.20;;;19.30;99.90;;;;;;5032444;28;20046;-65
2023/09/07 00:02:42;;;;;;;9.48;4.93;;;19.20;99.90;;;;;;5016245;28;20489;-65
2023/09/07 00:05:08;;;;;;;7.35;3.30;;;19.10;99.90;;;;;;5016076;28;20528;-66
2023/09/07 00:07:35;;;;;;;6.07;3.60;;;19.10;99.90;;;;;;5032811;28;20045;-65
2023/09/07 00:10:01;;;;;;;5.88;3.10;;;19.20;99.90;;;;;;5032385;28;20051;-67
2023/09/07 00:12:27;;;;;;;7.25;4.15;;;19.20;99.90;;;;;;5015949;28;20041;-66
2023/09/07 00:14:57;;;;;;;10.27;5.47;;;19.10;99.90;;;;;;5033688;28;20120;-67
2023/09/07 00:17:23;;;;;;;8.18;5.00;;;19.10;99.90;;;;;;5032318;28;20033;-64
2023/09/07 00:19:50;;;;;;;7.72;4.70;;;19.00;99.90;;;;;;5032312;28;20507;-64
2023/09/07 00:22:17;;;;;;;5.53;3.38;;;19.00;99.90;;;;;;5032450;28;20112;-65
2023/09/07 00:24:44;;;;;;;6.95;4.28;;;19.00;99.90;;;;;;5032280;28;20068;-64
2023/09/07 00:27:11;;;;;;;8.02;5.25;;;19.00;99.90;;;;;;5032361;28;20554;-65
2023/09/07 00:29:40;;;;;;;9.43;5.28;;;19.00;99.90;;;;;;5016197;28;20056;-65
2023/09/07 00:32:06;;;;;;;6.25;3.28;;;19.00;99.90;;;;;;5031910;28;20139;-64
2023/09/07 00:34:32;;;;;;;5.50;3.03;;;19.00;99.90;;;;;;5032028;28;20053;-64
2023/09/07 00:36:58;;;;;;;6.43;2.95;;;18.90;99.90;;;;;;5032008;28;20551;-64
2023/09/07 00:39:24;;;;;;;5.90;2.97;;;18.90;99.90;;;;;;5031748;28;20053;-65
2023/09/07 00:41:49;;;;;;;7.72;3.00;;;19.00;99.90;;;;;;5032239;28;20393;-65
2023/09/07 00:44:15;;;;;;;5.45;3.25;;;18.90;99.90;;;;;;5032321;28;20037;-65
2023/09/07 00:46:44;;;;;;;6.50;3.30;;;18.90;99.90;;;;;;5015639;28;20103;-65
2023/09/07 00:49:13;;;;;;;6.13;3.20;;;18.90;99.90;;;;;;5015583;28;20040;-64
2023/09/07 00:51:39;;;;;;;5.95;3.00;;;18.90;99.90;;;;;;5031951;28;20103;-64
2023/09/07 00:54:11;;;;;;;6.13;3.15;;;18.90;99.90;;;;;;5015504;28;20037;-65
2023/09/07 00:56:37;;;;;;;6.15;3.20;;;18.90;99.90;;;;;;5031824;28;20042;-65
2023/09/07 00:59:05;;;;;;;6.07;3.10;;;18.90;99.90;;;;;;5015430;28;20048;-65
2023/09/07 01:01:31;;;;;;;6.32;3.50;;;18.90;99.90;;;;;;5015471;28;20045;-66
2023/09/07 01:03:57;;;;;;;5.70;3.35;;;19.00;99.90;;;;;;5033299;28;20037;-65
2023/09/07 01:06:29;;;;;;;5.35;2.90;;;19.00;99.90;;;;;;5031599;28;20043;-65
2023/09/07 01:08:57;;;;;;;5.65;3.10;;;18.90;99.90;;;;;;5031932;28;20096;-66
2023/09/07 01:11:23;;;;;;;5.45;3.05;;;18.90;99.90;;;;;;5031531;28;20038;-64
2023/09/07 01:13:51;;;;;;;5.85;3.10;;;18.90;99.90;;;;;;5031752;28;20053;-65
2023/09/07 01:16:20;;;;;;;6.10;3.00;;;18.90;99.90;;;;;;5031561;28;20052;-64
2023/09/07 01:18:47;;;;;;;5.97;3.30;;;18.90;99.90;;;;;;5032036;28;20483;-65
2023/09/07 01:21:13;;;;;;;7.78;4.40;;;18.80;99.90;;;;;;5015032;28;20124;-65
2023/09/07 01:23:44;;;;;;;5.47;3.40;;;18.80;99.90;;;;;;5015027;28;20045;-65
2023/09/07 01:26:11;;;;;;;5.93;3.10;;;18.90;99.90;;;;;;5015130;28;20045;-65
2023/09/07 01:28:37;;;;;;;6.88;3.30;;;18.80;99.90;;;;;;5031838;28;20049;-65
2023/09/07 01:31:04;;;;;;;5.38;2.90;;;18.80;99.90;;;;;;5015538;28;20132;-64
2023/09/07 01:33:33;;;;;;;5.63;2.90;;;18.80;99.90;;;;;;5015587;28;20048;-65
2023/09/07 01:35:59;;;;;;;6.00;3.53;;;18.80;99.90;;;;;;5034687;28;20053;-64
2023/09/07 01:38:24;;;;;;;4.90;2.95;;;18.70;99.90;;;;;;5034753;28;20047;-64
2023/09/07 01:41:02;;;;;;;5.95;2.90;;;18.70;99.90;;;;;;5034713;28;20037;-65
2023/09/07 01:43:28;;;;;;;5.93;2.97;;;18.70;99.90;;;;;;5032324;28;20056;-64
2023/09/07 01:45:54;;;;;;;6.00;3.78;;;18.70;99.90;;;;;;5034523;28;20037;-65
2023/09/07 01:48:26;;;;;;;5.28;3.00;;;18.70;99.90;;;;;;5034651;28;20037;-66
2023/09/07 01:50:55;;;;;;;6.03;2.75;;;18.60;99.90;;;;;;5002798;28;20099;-64
2023/09/07 01:53:21;;;;;;;5.60;2.83;;;18.60;99.90;;;;;;5005555;28;20044;-65
2023/09/07 01:55:47;;;;;;;6.15;4.03;;;18.60;99.90;;;;;;5038265;28;20049;-65
2023/09/07 01:58:14;;;;;;;6.05;2.90;;;18.60;99.90;;;;;;5038504;28;20032;-64
2023/09/07 02:00:43;;;;;;;8.57;5.18;;;18.60;99.90;;;;;;5023042;28;20393;-70
2023/09/07 02:03:10;;;;;;;7.70;5.20;;;18.50;99.90;;;;;;5021815;28;20036;-71
2023/09/07 02:05:36;;;;;;;8.73;4.30;;;18.40;99.90;;;;;;5005476;28;20044;-70
2023/09/07 02:08:02;;;;;;;5.78;3.17;;;18.40;99.90;;;;;;5038016;28;20102;-70
2023/09/07 02:10:27;;;;;;;5.97;3.80;;;18.30;99.90;;;;;;5038051;28;20041;-71
2023/09/07 02:12:53;;;;;;;11.02;5.95;;;18.30;99.90;;;;;;5021461;28;20041;-71
2023/09/07 02:15:19;;;;;;;6.63;3.90;;;18.20;99.90;;;;;;5038183;28;20045;-70
2023/09/07 02:17:45;;;;;;;7.38;4.25;;;18.10;99.90;;;;;;5038184;28;20123;-70
2023/09/07 02:20:11;;;;;;;5.90;3.60;;;18.00;99.90;;;;;;5037989;28;20044;-70
2023/09/07 02:22:38;;;;;;;8.55;6.57;;;18.00;99.90;;;;;;5037727;28;20051;-71
2023/09/07 02:25:05;;;;;;;7.70;4.40;;;17.90;99.90;;;;;;5037964;28;20044;-71
2023/09/07 02:27:32;;;;;;;6.32;3.80;;;17.90;99.90;;;;;;5037649;28;20051;-71
2023/09/07 02:29:58;;;;;;;6.15;4.03;;;17.90;99.90;;;;;;5037609;28;20041;-71
2023/09/07 02:32:24;;;;;;;5.53;3.30;;;18.00;99.90;;;;;;5037454;28;20103;-71
2023/09/07 02:34:50;;;;;;;6.40;3.60;;;18.00;99.90;;;;;;5037442;28;20409;-70
2023/09/07 02:37:16;;;;;;;6.53;3.50;;;18.00;99.90;;;;;;5037567;28;20037;-70
2023/09/07 02:39:42;;;;;;;5.68;3.70;;;18.00;99.90;;;;;;5037547;28;20045;-71
2023/09/07 02:42:08;;;;;;;8.48;5.13;;;17.90;99.90;;;;;;5037595;28;20485;-71
2023/09/07 02:44:34;;;;;;;9.02;6.90;;;17.90;99.90;;;;;;5037467;28;20044;-71
2023/09/07 02:47:00;;;;;;;8.90;6.65;;;17.80;99.90;;;;;;5037634;28;20114;-72
2023/09/07 02:49:26;;;;;;;8.30;5.80;;;17.70;99.90;;;;;;5021042;28;20041;-71
2023/09/07 02:51:52;;;;;;;9.25;7.00;;;17.60;99.90;;;;;;5037362;28;20127;-70
2023/09/07 02:54:18;;;;;;;9.95;6.82;;;17.60;99.90;;;;;;5037173;28;20386;-71
2023/09/07 02:56:44;;;;;;;9.13;6.10;;;17.50;99.90;;;;;;5037055;28;20072;-71
2023/09/07 02:59:09;;;;;;;8.40;5.22;;;17.50;99.90;;;;;;5037246;28;20121;-71
2023/09/07 03:01:35;;;;;;;10.80;7.00;;;17.50;99.90;;;;;;5037210;28;20044;-70
2023/09/07 03:04:03;;;;;;;10.85;7.10;;;17.50;99.90;;;;;;5036337;28;20073;-72
2023/09/07 03:06:29;;;;;;;10.48;6.40;;;17.40;99.90;;;;;;5037042;28;20033;-71
2023/09/07 03:08:54;;;;;;;8.20;5.55;;;17.40;99.90;;;;;;5036821;28;20040;-70
2023/09/07 03:11:21;;;;;;;8.85;7.00;;;17.30;99.90;;;;;;5036796;28;20080;-64
2023/09/07 03:13:46;;;;;;;10.15;7.63;;;17.30;99.90;;;;;;5037019;28;20045;-64
2023/09/07 03:16:12;;;;;;;7.60;5.20;;;17.30;99.90;;;;;;5036696;28;20048;-65
2023/09/07 03:18:38;;;;;;;8.77;6.40;;;17.20;99.90;;;;;;5036643;28;20574;-65
2023/09/07 03:21:04;;;;;;;9.27;6.65;;;17.20;99.90;;;;;;5020201;28;20076;-65
2023/09/07 03:23:31;;;;;;;10.52;6.63;;;17.20;99.90;;;;;;5054697;28;20481;-66
2023/09/07 03:25:58;;;;;;;9.10;6.68;;;17.30;99.90;;;;;;5036855;28;20044;-65
2023/09/07 03:28:27;;;;;;;8.43;6.45;;;17.30;99.90;;;;;;5036479;28;20044;-65
2023/09/07 03:31:02;;;;;;;8.65;6.28;;;17.30;99.90;;;;;;5020445;28;20036;-66
2023/09/07 03:33:28;;;;;;;9.75;6.13;;;17.30;99.90;;;;;;5036177;28;20076;-64
2023/09/07 03:35:58;;;;;;;8.52;5.18;;;17.20;99.90;;;;;;5016435;28;20087;-65
2023/09/07 03:38:24;;;;;;;10.55;6.60;;;17.20;99.90;;;;;;5001223;28;20045;-65
2023/09/07 03:40:50;;;;;;;11.57;7.90;;;17.10;99.90;;;;;;5016546;28;20037;-65
2023/09/07 03:43:20;;;;;;;9.27;7.63;;;17.00;99.90;;;;;;5016774;28;20559;-65
2023/09/07 03:45:45;;;;;;;10.35;7.13;;;17.00;99.90;;;;;;5017292;28;20049;-64
2023/09/07 03:48:11;;;;;;;10.10;7.50;;;16.90;99.90;;;;;;5049428;28;20101;-65
2023/09/07 03:50:37;;;;;;;9.32;6.70;;;16.90;99.90;;;;;;5049336;28;20102;-65
2023/09/07 03:53:03;;;;;;;7.63;5.30;;;16.90;99.90;;;;;;5016407;28;20045;-65
2023/09/07 03:55:29;;;;;;;10.13;7.80;;;16.80;99.90;;;;;;5032800;28;20481;-64
2023/09/07 03:57:55;;;;;;;10.02;7.35;;;16.80;99.90;;;;;;5032979;28;20482;-65
2023/09/07 04:00:21;;;;;;;10.43;8.23;;;16.80;99.90;;;;;;5032851;28;20043;-65
2023/09/07 04:02:47;;;;;;;10.00;7.32;;;16.80;99.90;;;;;;5032794;28;20136;-64
2023/09/07 04:05:13;;;;;;;9.65;7.00;;;16.70;99.90;;;;;;5032620;28;20041;-65
2023/09/07 04:07:39;;;;;;;9.45;6.65;;;16.80;99.90;;;;;;4999620;28;20045;-66
2023/09/07 04:10:05;;;;;;;8.40;6.40;;;16.80;99.90;;;;;;5032452;28;20497;-64
2023/09/07 04:12:33;;;;;;;9.43;6.40;;;16.70;99.90;;;;;;5032472;28;20048;-64
2023/09/07 04:15:00;;;;;;;12.00;7.97;;;16.80;99.90;;;;;;5031692;28;20040;-65
2023/09/07 04:17:27;;;;;;;11.00;7.60;;;16.80;99.90;;;;;;5016128;28;20045;-64
2023/09/07 04:19:52;;;;;;;11.05;7.90;;;16.70;99.90;;;;;;5032874;28;20037;-71
2023/09/07 04:22:18;;;;;;;11.60;7.75;;;16.60;99.90;;;;;;5032530;28;20099;-71
2023/09/07 04:24:48;;;;;;;7.88;6.10;;;16.60;99.90;;;;;;5032455;28;20103;-71
2023/09/07 04:27:14;;;;;;;12.07;6.20;;;16.50;99.90;;;;;;5048598;28;20060;-70
2023/09/07 04:29:40;;;;;;;8.23;5.80;;;16.50;99.90;;;;;;5015980;28;20037;-72
2023/09/07 04:32:06;;;;;;;8.77;7.22;;;16.50;99.90;;;;;;5032225;28;20048;-71
2023/09/07 04:34:35;;;;;;;6.57;4.32;;;16.50;99.90;;;;;;5032137;28;20084;-70
2023/09/07 04:37:00;;;;;;;10.82;7.32;;;16.50;99.90;;;;;;5032290;28;20390;-71
2023/09/07 04:39:26;;;;;;;9.90;8.27;;;16.50;99.90;;;;;;5032066;28;20041;-71
2023/09/07 04:41:53;;;;;;;10.90;8.57;;;16.50;99.90;;;;;;5015999;28;20045;-72
2023/09/07 04:44:19;;;;;;;10.40;9.05;;;16.40;99.90;;;;;;4983160;28;20049;-73
2023/09/07 04:46:45;;;;;;;10.52;7.90;;;16.40;99.90;;;;;;5015933;28;20041;-71
2023/09/07 04:49:10;;;;;;;10.70;8.05;;;16.40;99.90;;;;;;5032071;28;20401;-72
2023/09/07 04:51:36;;;;;;;9.55;7.13;;;16.40;99.90;;;;;;5032276;28;20080;-72
2023/09/07 04:54:02;;;;;;;8.75;7.07;;;16.40;99.90;;;;;;5033182;28;20095;-73
2023/09/07 04:56:28;;;;;;;10.73;6.13;;;16.30;99.90;;;;;;4999473;28;20048;-72
2023/09/07 04:58:54;;;;;;;11.80;8.45;;;16.40;99.90;;;;;;5015618;28;20041;-71
2023/09/07 05:01:20;;;;;;;12.02;8.75;;;16.40;99.90;;;;;;5031686;28;20052;-73
2023/09/07 05:03:46;;;;;;;9.98;8.13;;;16.40;99.90;;;;;;5015622;28;20046;-71
2023/09/07 05:06:12;;;;;;;10.63;8.32;;;16.30;99.90;;;;;;5031708;28;20493;-72
2023/09/07 05:08:38;;;;;;;9.85;7.80;;;16.30;99.90;;;;;;5031612;28;20045;-70
2023/09/07 05:11:07;;;;;;;11.10;8.02;;;16.30;99.90;;;;;;5031615;28;20045;-72
2023/09/07 05:13:33;;;;;;;10.75;7.80;;;16.40;99.90;;;;;;5031636;28;20084;-72
2023/09/07 05:16:02;;;;;;;10.60;7.80;;;16.40;99.90;;;;;;5015732;28;20033;-71
2023/09/07 05:18:28;;;;;;;10.93;8.38;;;16.30;99.90;;;;;;5015490;28;20052;-71
2023/09/07 05:20:54;;;;;;;10.10;7.35;;;16.30;99.90;;;;;;5031630;28;20033;-72
2023/09/07 05:23:20;;;;;;;10.20;7.80;;;16.30;99.90;;;;;;5015195;28;20045;-72
2023/09/07 05:25:50;;;;;;;10.45;8.13;;;16.30;99.90;;;;;;5032518;28;20037;-71
2023/09/07 05:28:16;;;;;;;9.35;7.13;;;16.40;99.90;;;;;;5019107;28;20046;-72
2023/09/07 05:30:42;;;;;;;9.82;7.78;;;16.40;99.90;;;;;;5035979;28;20496;-72
2023/09/07 05:33:12;;;;;;;9.32;6.95;;;16.50;99.90;;;;;;5035620;28;20581;-74
2023/09/07 05:35:39;;;;;;;10.20;7.93;;;16.50;99.90;;;;;;5035829;28;20089;-72
2023/09/07 05:38:05;;;;;;;9.90;7.68;;;16.60;99.90;;;;;;5035883;28;20096;-72
2023/09/07 05:40:41;;;;;;;9.88;7.60;;;16.70;99.90;;;;;;5036375;28;20043;-72
2023/09/07 05:43:07;;;;;;;9.93;8.02;;;16.70;99.90;;;;;;5036314;28;20049;-73
2023/09/07 05:45:40;;;;;;;12.52;7.68;;;16.80;99.90;;;;;;5036132;28;20083;-75
2023/09/07 05:48:07;;;;;;;10.52;8.05;;;16.70;99.90;;;;;;5035719;28;20048;-72
2023/09/07 05:50:35;;;;;;;10.40;7.55;;;16.80;99.90;;;;;;5035437;28;20128;-73
2023/09/07 05:53:02;;;;;;;10.52;8.30;;;16.80;99.90;;;;;;5035847;28;20375;-72
2023/09/07 05:55:27;;;;;;;11.38;7.75;;;16.80;99.90;;;;;;5019342;28;20503;-73
2023/09/07 05:57:57;;;;;;;10.50;8.48;;;16.80;99.90;;;;;;5035190;28;20128;-71
2023/09/07 06:00:23;;;;;;;11.38;8.88;;;16.90;99.90;;;;;;5035307;28;20091;-72
2023/09/07 06:02:50;;;;;;;10.65;8.48;;;16.90;99.90;;;;;;5035304;28;20046;-71
2023/09/07 06:05:19;;;;;;;9.10;7.60;;;17.00;99.90;;;;;;5035482;28;20053;-73
2023/09/07 06:07:45;;;;;;;11.02;8.40;;;17.00;99.90;;;;;;5051577;28;20037;-71
2023/09/07 06:10:11;;;;;;;10.68;9.40;;;17.10;99.90;;;;;;5002503;28;20038;-72
2023/09/07 06:12:37;;;;;;;10.15;8.55;;;17.30;99.90;;;;;;5035865;28;20516;-71
2023/09/07 06:15:03;;;;;;;11.68;8.20;;;18.00;99.90;;;;;;5019252;28;20095;-71
2023/09/07 06:17:29;;;;;;;12.20;7.50;;;18.80;99.90;;;;;;5056093;28;20037;-72
2023/09/07 06:19:56;;;;;;;9.10;7.00;;;19.40;99.90;;;;;;5040422;28;20405;-72
2023/09/07 06:22:22;;;;;;;10.30;7.53;;;20.30;99.90;;;;;;5041461;28;20037;-69
2023/09/07 06:25:07;;;;;;;9.43;7.30;;;20.90;99.90;;;;;;5042696;28;20037;-72
2023/09/07 06:27:33;;;;;;;9.02;6.88;;;21.70;99.90;;;;;;5056784;28;20048;-72
2023/09/07 06:29:59;;;;;;;10.75;7.07;;;22.30;99.90;;;;;;5058115;28;20048;-72
2023/09/07 06:32:25;;;;;;;8.38;6.38;;;22.30;99.90;;;;;;5072900;28;20042;-73
2023/09/07 06:34:51;;;;;;;10.90;6.35;;;22.70;99.90;;;;;;5057312;28;20434;-72
2023/09/07 06:37:18;;;;;;;9.32;6.50;;;23.60;99.90;;;;;;5041950;28;20136;-70
2023/09/07 06:39:43;;;;;;;10.07;7.03;;;23.80;99.90;;;;;;5059184;28;20043;-71
2023/09/07 06:42:10;;;;;;;10.18;6.28;;;24.10;99.90;;;;;;5058288;28;20048;-72
2023/09/07 06:44:36;;;;;;;9.52;6.55;;;24.90;99.90;;;;;;5041591;28;20036;-72
2023/09/07 06:47:02;;;;;;;10.02;6.72;;;25.30;99.90;;;;;;5042530;28;20045;-72
2023/09/07 06:49:29;;;;;;;10.35;7.38;;;25.20;99.40;;;;;;5058797;28;20124;-71
2023/09/07 06:51:56;;;;;;;10.45;6.88;;;25.30;99.90;;;;;;5076417;28;20052;-71
2023/09/07 06:54:25;;;;;;;10.07;6.70;;;25.90;98.60;;;;;;5057801;28;20085;-70
2023/09/07 06:56:50;;;;;;;10.50;7.95;;;25.50;97.50;;;;;;5058314;28;20472;-72
2023/09/07 06:59:16;;;;;;;10.77;6.97;;;25.20;97.90;;;;;;5041727;28;20047;-73
2023/09/07 07:01:42;;;;;;;10.85;6.90;;;25.00;99.00;;;;;;5058296;28;20072;-70
2023/09/07 07:04:09;;;;;;;10.27;6.43;;;25.20;98.70;;;;;;5076450;28;20042;-71
2023/09/07 07:06:35;;;;;;;10.85;6.63;;;25.50;98.70;;;;;;5024964;28;20127;-73
2023/09/07 07:09:01;;;;;;;9.52;6.65;;;25.80;98.80;;;;;;5057696;28;20072;-73
2023/09/07 07:11:27;;;;;;;9.25;6.30;;;25.90;97.50;;;;;;5057675;28;20103;-72
2023/09/07 07:13:52;;;;;;;9.52;6.20;;;26.40;96.90;;;;;;5041164;28;20477;-72
2023/09/07 07:16:18;;;;;;;8.13;6.10;;;26.50;95.60;;;;;;5041395;28;20037;-71
2023/09/07 07:18:44;;;;;;;9.13;6.07;;;26.30;96.20;;;;;;5057798;28;20458;-71
2023/09/07 07:21:10;;;;;;;10.20;6.53;;;26.80;96.10;;;;;;5042713;28;20069;-71
2023/09/07 07:23:36;;;;;;;9.20;6.00;;;27.10;95.10;;;;;;5041907;28;20063;-72
2023/09/07 07:26:02;;;;;;;8.85;6.28;;;27.20;95.10;;;;;;5058558;28;20048;-71
2023/09/07 07:28:28;;;;;;;10.02;6.28;;;27.20;95.40;;;;;;5041253;28;20055;-71
2023/09/07 07:30:53;;;;;;;9.93;6.50;;;27.00;95.10;;;;;;5041046;28;20041;-72
2023/09/07 07:33:20;;;;;;;9.07;6.13;;;27.20;94.90;;;;;;5057084;28;20048;-72
2023/09/07 07:35:46;;;;;;;9.02;6.10;;;26.90;94.60;;;;;;5040085;28;20067;-72
2023/09/07 07:38:15;;;;;;;7.75;6.50;;;27.10;94.50;;;;;;5040850;28;20061;-73
2023/09/07 07:40:42;;;;;;;9.02;6.65;;;26.90;94.40;;;;;;5057512;28;20189;-72
2023/09/07 07:43:10;;;;;;;11.20;6.00;;;26.90;94.70;;;;;;5057441;28;20041;-73
2023/09/07 07:45:38;;;;;;;9.05;7.00;;;26.70;95.10;;;;;;5056934;28;20097;-73
2023/09/07 07:48:07;;;;;;;10.57;6.30;;;26.00;95.50;;;;;;5057049;28;20099;-72
2023/09/07 07:50:40;;;;;;;10.68;6.47;;;25.90;96.30;;;;;;5056125;28;20492;-70
2023/09/07 07:53:06;;;;;;;8.98;6.30;;;26.10;95.50;;;;;;5056375;28;20040;-73
2023/09/07 07:55:38;;;;;;;8.38;5.93;;;26.10;95.20;;;;;;5074005;28;20116;-73
2023/09/07 07:58:08;;;;;;;9.00;5.93;;;26.40;95.60;;;;;;5056334;28;20051;-72
2023/09/07 08:00:38;;;;;;;9.68;6.78;;;26.20;95.20;;;;;;5055987;28;20040;-72
2023/09/07 08:03:08;;;;;;;9.23;6.00;;;25.90;95.50;;;;;;5023353;28;20117;-71
2023/09/07 08:05:35;;;;;;;7.85;6.03;;;25.80;97.10;;;;;;5039506;28;20044;-71
2023/09/07 08:08:01;;;;;;;8.73;5.97;;;25.50;96.50;;;;;;5055838;28;20171;-71
2023/09/07 08:10:27;;;;;;;8.40;5.43;;;25.70;96.70;;;;;;5055892;28;20063;-71
2023/09/07 08:12:54;;;;;;;8.32;5.88;;;25.90;96.00;;;;;;5011802;28;20049;-71
2023/09/07 08:15:22;;;;;;;7.80;5.50;;;26.00;95.70;;;;;;5056069;28;20524;-72
2023/09/07 08:17:48;;;;;;;9.23;5.53;;;25.90;96.20;;;;;;5073857;28;20056;-72
2023/09/07 08:20:15;;;;;;;7.72;5.43;;;25.90;95.50;;;;;;5039305;28;20032;-71
2023/09/07 08:22:42;;;;;;;8.23;5.28;;;26.30;95.60;;;;;;5055742;28;20048;-73
2023/09/07 08:25:13;;;;;;;8.30;5.10;;;26.50;95.70;;;;;;5034112;28;20055;-71
2023/09/07 08:27:49;;;;;;;8.63;4.40;;;26.60;96.50;;;;;;5051505;28;20079;-71
2023/09/07 08:30:17;;;;;;;8.15;5.00;;;27.00;96.00;;;;;;5040526;28;20128;-71
2023/09/07 08:32:45;;;;;;;7.20;5.30;;;27.30;95.50;;;;;;5035755;28;20071;-71
2023/09/07 08:35:15;;;;;;;6.97;4.57;;;27.20;94.40;;;;;;5035574;28;20033;-72
2023/09/07 08:37:41;;;;;;;7.68;4.80;;;27.00;93.80;;;;;;5019911;28;20053;-72
2023/09/07 08:40:07;;;;;;;8.25;5.07;;;27.00;95.30;;;;;;5041052;28;20091;-73
2023/09/07 08:42:37;;;;;;;8.45;4.75;;;26.90;94.30;;;;;;5063032;28;20523;-71
2023/09/07 08:45:07;;;;;;;6.80;4.78;;;26.80;94.80;;;;;;5055213;28;20094;-71
2023/09/07 08:47:35;;;;;;;8.18;4.72;;;26.60;94.20;;;;;;5055543;28;20044;-71
2023/09/07 08:50:02;;;;;;;6.95;4.03;;;26.20;94.70;;;;;;5055305;28;20043;-71
2023/09/07 08:52:28;;;;;;;8.43;4.68;;;26.20;95.40;;;;;;5055226;28;20040;-72
2023/09/07 08:54:55;;;;;;;7.25;4.47;;;26.50;95.80;;;;;;5073188;28;20041;-71
2023/09/07 08:57:22;;;;;;;9.23;4.82;;;26.70;95.40;;;;;;5055405;28;20507;-71
2023/09/07 08:59:49;;;;;;;8.30;4.50;;;26.80;94.80;;;;;;5039199;28;20086;-65
2023/09/07 09:02:16;;;;;;;7.45;4.57;;;27.00;94.90;;;;;;5078072;28;20120;-64
2023/09/07 09:04:45;;;;;;;13.18;4.95;;;27.00;94.90;;;;;;5062356;28;20098;-64
2023/09/07 09:07:10;;;;;;;6.35;4.05;;;27.00;93.80;;;;;;5061511;28;20075;-65
2023/09/07 09:09:38;;;;;;;8.10;4.55;;;27.10;94.00;;;;;;5061501;28;20049;-65
2023/09/07 09:12:13;;;;;;;7.65;4.20;;;27.10;93.00;;;;;;5044981;28;20049;-64
2023/09/07 09:14:44;;;;;;;8.77;4.07;;;27.10;93.20;;;;;;5044911;28;20033;-64
2023/09/07 09:17:14;;;;;;;8.63;4.28;;;27.20;91.90;;;;;;5061813;28;20028;-64
2023/09/07 09:19:41;;;;;;;6.30;4.10;;;27.40;91.80;;;;;;5061499;28;20048;-65
2023/09/07 09:22:07;;;;;;;7.80;4.25;;;27.30;93.10;;;;;;5060804;28;20051;-65
2023/09/07 09:24:34;;;;;;;7.03;4.35;;;27.20;92.20;;;;;;5045234;28;20048;-65
2023/09/07 09:27:00;;;;;;;8.38;4.47;;;27.30;91.10;;;;;;5045094;28;20504;-65
2023/09/07 09:29:27;;;;;;;7.20;4.20;;;27.00;92.00;;;;;;5061646;28;20040;-64
2023/09/07 09:31:53;;;;;;;7.60;4.05;;;27.20;91.80;;;;;;5061238;28;20139;-64
2023/09/07 09:34:20;;;;;;;7.28;4.10;;;27.20;92.00;;;;;;5061693;28;20079;-65
2023/09/07 09:36:46;;;;;;;6.72;4.35;;;27.30;92.30;;;;;;5044457;28;20098;-65
2023/09/07 09:39:23;;;;;;;7.75;4.05;;;27.20;91.00;;;;;;5061407;28;20049;-65
2023/09/07 09:41:49;;;;;;;6.72;4.22;;;27.40;92.00;;;;;;5061446;28;20489;-65
2023/09/07 09:44:16;;;;;;;6.95;4.13;;;27.20;91.20;;;;;;5061475;28;20127;-63
2023/09/07 09:46:45;;;;;;;7.82;4.88;;;27.40;91.50;;;;;;5061182;28;20036;-67
2023/09/07 09:49:13;;;;;;;9.25;4.50;;;27.60;90.70;;;;;;5061216;28;20052;-65
2023/09/07 09:51:39;;;;;;;7.25;4.50;;;27.60;91.20;;;;;;5061181;28;20070;-64
2023/09/07 09:54:06;;;;;;;7.18;4.40;;;27.70;91.00;;;;;;5044827;28;20591;-66
2023/09/07 09:56:32;;;;;;;7.68;4.22;;;27.70;91.30;;;;;;5057509;28;20033;-64
2023/09/07 09:58:57;;;;;;;7.30;4.25;;;27.80;91.40;;;;;;5044571;28;20070;-65
2023/09/07 10:01:24;;;;;;;8.10;4.13;;;28.00;91.90;;;;;;5061453;28;20373;-66
2023/09/07 10:03:51;;;;;;;6.30;4.05;;;28.20;93.70;;;;;;5061342;28;20066;-66
2023/09/07 10:06:28;;;;;;;6.78;4.00;;;28.50;93.60;;;;;;5079249;28;20044;-69
2023/09/07 10:09:04;;;;;;;6.13;4.07;;;28.70;91.00;;;;;;5061095;28;20043;-65
2023/09/07 10:11:32;;;;;;;7.47;3.90;;;28.70;90.60;;;;;;5061220;28;20493;-70
2023/09/07 10:13:59;;;;;;;7.40;4.32;;;28.80;91.10;;;;;;5058399;28;20094;-71
2023/09/07 10:16:26;;;;;;;6.65;4.32;;;28.60;88.90;;;;;;5042229;28;20050;-72
2023/09/07 10:18:52;;;;;;;9.63;4.38;;;28.80;89.70;;;;;;5041959;28;20094;-72
2023/09/07 10:21:18;;;;;;;7.07;4.35;;;28.80;88.10;;;;;;5058281;28;20036;-72
2023/09/07 10:23:53;;;;;;;7.50;4.00;;;28.80;90.00;;;;;;5058325;28;20123;-72
2023/09/07 10:26:23;;;;;;;5.97;3.88;;;29.00;90.60;;;;;;5058499;28;20048;-71
2023/09/07 10:29:00;;;;;;;6.75;3.70;;;29.20;88.10;;;;;;5057827;28;20044;-71
2023/09/07 10:31:27;;;;;;;9.60;3.88;;;29.20;86.90;;;;;;5074412;28;20048;-71
2023/09/07 10:33:56;;;;;;;7.85;3.83;;;29.30;88.50;;;;;;5057666;28;20099;-71
2023/09/07 10:36:26;;;;;;;6.60;4.10;;;29.40;85.90;;;;;;5039063;28;20500;-71
2023/09/07 10:38:55;;;;;;;6.95;3.70;;;29.30;86.30;;;;;;5057692;28;20067;-72
2023/09/07 10:41:20;;;;;;;6.82;4.20;;;29.10;84.40;;;;;;5057501;28;20045;-71
2023/09/07 10:43:54;;;;;;;6.75;4.00;;;29.00;82.90;;;;;;5057601;28;20048;-73
2023/09/07 10:46:21;;;;;;;8.77;4.05;;;29.00;83.60;;;;;;5074175;28;20178;-72
2023/09/07 10:48:52;;;;;;;7.85;4.00;;;28.90;84.70;;;;;;5057572;28;20047;-73
2023/09/07 10:51:20;;;;;;;7.95;4.30;;;28.90;83.80;;;;;;5057481;28;20037;-74
2023/09/07 10:53:46;;;;;;;7.32;3.92;;;29.00;83.50;;;;;;5057089;28;20067;-72
2023/09/07 10:56:12;;;;;;;7.32;3.88;;;29.00;84.70;;;;;;5057066;28;20036;-71
2023/09/07 10:58:40;;;;;;;7.63;3.92;;;29.10;86.30;;;;;;5057092;28;20032;-71
2023/09/07 11:01:07;;;;;;;8.10;3.92;;;29.40;85.50;;;;;;5057315;28;20044;-71
2023/09/07 11:03:33;;;;;;;6.10;3.45;;;29.40;83.60;;;;;;5057173;28;20044;-70
2023/09/07 11:06:09;;;;;;;7.60;3.72;;;29.30;83.20;;;;;;5057186;28;20496;-71
2023/09/07 11:08:35;;;;;;;7.35;3.72;;;29.30;80.60;;;;;;5057265;28;20527;-72
2023/09/07 11:11:02;;;;;;;7.55;3.75;;;29.30;81.00;;;;;;5056904;28;20044;-71
2023/09/07 11:13:28;;;;;;;8.32;3.80;;;29.30;80.60;;;;;;5056693;28;20045;-72
2023/09/07 11:15:56;;;;;;;7.53;3.67;;;29.30;81.00;;;;;;5040236;28;20043;-72
2023/09/07 11:18:23;;;;;;;8.93;3.80;;;29.20;78.70;;;;;;5056905;28;20591;-71
2023/09/07 11:20:50;;;;;;;7.10;3.78;;;29.10;79.70;;;;;;5056987;28;20036;-70
2023/09/07 11:23:20;;;;;;;7.85;3.80;;;29.20;78.60;;;;;;5056805;28;20040;-71
2023/09/07 11:25:48;;;;;;;6.50;3.70;;;29.20;77.60;;;;;;5056666;28;20045;-71
2023/09/07 11:28:19;;;;;;;6.93;3.75;;;29.20;78.90;;;;;;5040511;28;20489;-72
2023/09/07 11:30:53;;;;;;;6.75;3.80;;;29.20;79.40;;;;;;5056501;28;20048;-71
2023/09/07 11:33:20;;;;;;;7.57;3.58;;;29.30;75.50;;;;;;5056188;28;20044;-71
2023/09/07 11:35:46;;;;;;;7.38;3.65;;;29.20;75.80;;;;;;5056357;28;20044;-71
2023/09/07 11:38:14;;;;;;;7.60;3.75;;;29.20;78.30;;;;;;5036234;28;20512;-71
2023/09/07 11:40:47;;;;;;;6.55;3.60;;;29.40;78.00;;;;;;5052971;28;20055;-72
2023/09/07 11:43:18;;;;;;;9.40;3.70;;;29.60;79.00;;;;;;5037471;28;20498;-71
2023/09/07 11:45:45;;;;;;;5.95;3.42;;;29.70;76.70;;;;;;5036636;28;20081;-71
2023/09/07 11:48:11;;;;;;;8.02;3.65;;;29.80;76.10;;;;;;5053076;28;20120;-71
2023/09/07 11:50:38;;;;;;;7.32;3.95;;;29.80;75.80;;;;;;5036255;28;20045;-71
2023/09/07 11:53:04;;;;;;;5.80;3.58;;;29.70;75.90;;;;;;5052740;28;20048;-71
2023/09/07 11:55:30;;;;;;;6.00;3.58;;;29.80;78.40;;;;;;5052742;28;20037;-71
2023/09/07 11:57:56;;;;;;;6.70;3.70;;;29.80;78.40;;;;;;5053924;28;20047;-71
2023/09/07 12:00:22;;;;;;;6.85;3.80;;;29.80;79.50;;;;;;4979776;28;20540;-70
2023/09/07 12:02:48;;;;;;;5.90;3.65;;;29.80;79.00;;;;;;5044562;28;20068;-71
2023/09/07 12:05:15;;;;;;;7.20;3.90;;;29.90;79.10;;;;;;5052544;28;20075;-73
2023/09/07 12:07:44;;;;;;;5.88;3.63;;;29.90;78.20;;;;;;4983688;28;20084;-72
2023/09/07 12:10:10;;;;;;;6.45;3.80;;;29.90;75.70;;;;;;5027922;28;20045;-70
2023/09/07 12:12:43;;;;;;;7.78;3.80;;;29.90;77.20;;;;;;5052581;28;20036;-72
2023/09/07 12:15:13;;;;;;;8.32;3.58;;;29.90;76.50;;;;;;5052549;28;20044;-72
2023/09/07 12:17:39;;;;;;;5.88;3.50;;;29.90;79.50;;;;;;5052540;28;20496;-71
2023/09/07 12:20:09;;;;;;;8.80;3.75;;;29.90;77.50;;;;;;5053768;28;20107;-72
2023/09/07 12:22:37;;;;;;;6.03;3.53;;;29.90;76.40;;;;;;5053478;28;20037;-71
2023/09/07 12:25:06;;;;;;;6.78;3.88;;;29.80;76.00;;;;;;5051866;28;20052;-70
2023/09/07 12:27:35;;;;;;;7.05;3.60;;;29.60;76.40;;;;;;5053801;28;20044;-71
2023/09/07 12:30:02;;;;;;;7.63;3.70;;;29.80;75.00;;;;;;5051785;28;20071;-65
2023/09/07 12:32:28;;;;;;;8.20;3.33;;;29.70;77.10;;;;;;5049009;28;20455;-65
2023/09/07 12:34:53;;;;;;;7.18;3.75;;;29.70;78.80;;;;;;5051497;28;20067;-65
2023/09/07 12:37:23;;;;;;;7.88;3.60;;;29.60;76.00;;;;;;5051481;28;20049;-65
2023/09/07 12:39:49;;;;;;;8.20;3.50;;;29.70;76.30;;;;;;5051914;28;20045;-65
2023/09/07 12:42:15;;;;;;;8.43;3.60;;;29.70;77.60;;;;;;5035464;28;20041;-65
2023/09/07 12:44:41;;;;;;;7.03;3.55;;;29.40;77.80;;;;;;5051751;28;20045;-65